Terminal Aerodrome Forecast
Issued by NWS Blacksburg, VA

Home | Current Version | Previous Version | Text Only | Print | Product List | Glossary On
Versions: 1 2 3 4 5 6 7 8 9 10 11 12 13 14 15 16 17 18 19 20 21 22 23 24 25 26 27 28 29 30 31 32 33 34
000
FTUS41 KRNK 250311 AAA
TAFBLF
TAF AMD
KBLF 250311Z 2503/2524 36004KT 6SM BR SCT005 BKN015 OVC025
     FM250500 VRB03KT 5SM BR BKN005 OVC015
      TEMPO 2506/2510 1/2SM FG VV004
     FM251230 VRB04KT P6SM OVC015
     FM251500 14005KT P6SM BKN025=

USA.gov is the U.S. government's official web portal to all federal, state and local government web resources and services.